Time;durP1;ratioP1;P1;durP2;ratioP2;P2;SDS_P1;SDS_P2;PMS_P1;PMS_P2;Temp;Humidity;BMP_temperature;BMP_pressure;BME280_temperature;BME280_humidity;BME280_pressure;Samples;Min_cycle;Max_cycle;Signal;HPM_P1;HPM_P2
2023/10/20 00:00:37;;;;;;;51.72;26.15;;;;;;;;;;8363568;28;20053;-94
2023/10/20 00:05:05;;;;;;;63.78;28.05;;;;;;;;;;8362933;28;20044;-94
2023/10/20 00:09:14;;;;;;;55.83;25.45;;;;;;;;;;8372685;28;20057;-91
2023/10/20 00:13:17;;;;;;;54.95;26.42;;;;;;;;;;8363418;28;20060;-91
2023/10/20 00:17:19;;;;;;;51.13;25.23;;;;;;;;;;8352710;28;20058;-89
2023/10/20 00:21:23;;;;;;;52.03;26.13;;;;;;;;;;8364276;28;20084;-88
2023/10/20 00:25:28;;;;;;;58.78;26.52;;;;;;;;;;8374543;28;20045;-94
2023/10/20 00:29:31;;;;;;;49.20;25.90;;;;;;;;;;8376950;28;20033;-93
2023/10/20 00:33:36;;;;;;;48.50;24.15;;;;;;;;;;8370809;28;20421;-92
2023/10/20 00:37:56;;;;;;;49.35;24.60;;;;;;;;;;8359747;28;20098;-88
2023/10/20 00:42:02;;;;;;;48.22;24.75;;;;;;;;;;8358051;28;20133;-89
2023/10/20 00:46:10;;;;;;;50.35;24.50;;;;;;;;;;8372767;28;20477;-90
2023/10/20 00:50:13;;;;;;;47.00;24.90;;;;;;;;;;8375702;28;20076;-92
2023/10/20 00:54:17;;;;;;;54.58;26.88;;;;;;;;;;8364268;28;20131;-93
2023/10/20 00:58:22;;;;;;;53.28;25.83;;;;;;;;;;8367756;28;20552;-96
2023/10/20 01:02:29;;;;;;;50.03;26.15;;;;;;;;;;8370521;28;20049;-96
2023/10/20 01:06:32;;;;;;;51.58;26.35;;;;;;;;;;8370358;28;20057;-90
2023/10/20 01:10:36;;;;;;;54.67;25.17;;;;;;;;;;8362827;28;20467;-94
2023/10/20 01:14:41;;;;;;;53.47;25.50;;;;;;;;;;8376341;28;20106;-95
2023/10/20 01:18:52;;;;;;;47.97;24.50;;;;;;;;;;8348473;28;20064;-92
2023/10/20 01:22:55;;;;;;;53.72;25.52;;;;;;;;;;8349215;28;20101;-94
2023/10/20 01:27:03;;;;;;;52.45;25.17;;;;;;;;;;8366004;28;20131;-95
2023/10/20 01:31:06;;;;;;;52.63;23.52;;;;;;;;;;8377767;28;20509;-93
2023/10/20 01:35:10;;;;;;;49.70;24.15;;;;;;;;;;8356557;28;20060;-90
2023/10/20 01:39:15;;;;;;;46.70;22.52;;;;;;;;;;8356349;28;20084;-89
2023/10/20 01:43:24;;;;;;;46.70;21.80;;;;;;;;;;8365958;28;20135;-90
2023/10/20 01:47:30;;;;;;;48.30;21.95;;;;;;;;;;8366199;28;20488;-90
2023/10/20 01:51:35;;;;;;;51.50;22.38;;;;;;;;;;8358365;28;20049;-95
2023/10/20 01:55:39;;;;;;;51.03;23.13;;;;;;;;;;8361771;28;20114;-94
2023/10/20 01:59:45;;;;;;;41.17;20.58;;;;;;;;;;8355023;28;20077;-87
2023/10/20 02:03:49;;;;;;;48.13;21.65;;;;;;;;;;8355452;28;20112;-90
2023/10/20 02:07:52;;;;;;;44.72;21.08;;;;;;;;;;8361224;28;20076;-89
2023/10/20 02:11:58;;;;;;;41.65;20.13;;;;;;;;;;8371530;28;20109;-90
2023/10/20 02:16:03;;;;;;;67.40;27.98;;;;;;;;;;8368494;28;20057;-96
2023/10/20 02:20:07;;;;;;;53.38;23.60;;;;;;;;;;8370198;28;20576;-93
2023/10/20 02:24:10;;;;;;;45.03;23.42;;;;;;;;;;8358938;28;20057;-92
2023/10/20 02:28:13;;;;;;;47.65;23.92;;;;;;;;;;8371901;28;20057;-90
2023/10/20 02:32:17;;;;;;;58.72;29.65;;;;;;;;;;8358090;28;20432;-90
2023/10/20 02:36:21;;;;;;;45.60;21.30;;;;;;;;;;8381240;28;20127;-88
2023/10/20 02:40:24;;;;;;;42.47;22.42;;;;;;;;;;8390929;28;20059;-90
2023/10/20 02:44:27;;;;;;;47.15;23.42;;;;;;;;;;8381097;28;20061;-89
2023/10/20 02:48:31;;;;;;;40.70;21.17;;;;;;;;;;8376485;28;20133;-90
2023/10/20 02:52:35;;;;;;;41.63;20.58;;;;;;;;;;8375990;28;20063;-93
2023/10/20 02:56:38;;;;;;;41.63;19.35;;;;;;;;;;8372534;28;20527;-90
2023/10/20 03:00:42;;;;;;;41.60;20.65;;;;;;;;;;8380884;28;20053;-95
2023/10/20 03:04:48;;;;;;;46.70;24.20;;;;;;;;;;8364978;28;20057;-93
2023/10/20 03:08:51;;;;;;;46.47;24.20;;;;;;;;;;8367474;28;20057;-95
2023/10/20 03:12:54;;;;;;;35.83;21.33;;;;;;;;;;8364530;28;20049;-94
2023/10/20 03:16:57;;;;;;;36.63;20.13;;;;;;;;;;8360493;28;20063;-89
2023/10/20 03:21:03;;;;;;;46.20;25.17;;;;;;;;;;8375396;28;20049;-93
2023/10/20 03:25:08;;;;;;;44.40;25.05;;;;;;;;;;8361273;28;20135;-95
2023/10/20 03:29:11;;;;;;;40.40;24.17;;;;;;;;;;8359634;28;20489;-89
2023/10/20 03:33:16;;;;;;;43.22;21.98;;;;;;;;;;8345671;28;20053;-89
2023/10/20 03:37:20;;;;;;;47.60;24.05;;;;;;;;;;8348146;28;20049;-88
2023/10/20 03:41:25;;;;;;;36.60;20.95;;;;;;;;;;8361027;28;20053;-91
2023/10/20 03:45:27;;;;;;;40.83;21.85;;;;;;;;;;8371621;28;20053;-95
2023/10/20 03:49:33;;;;;;;36.70;19.42;;;;;;;;;;8357653;28;20061;-95
2023/10/20 03:53:46;;;;;;;30.80;17.08;;;;;;;;;;8370301;28;20057;-89
2023/10/20 03:57:49;;;;;;;35.05;18.05;;;;;;;;;;8360395;28;20114;-92
2023/10/20 04:01:53;;;;;;;36.97;18.45;;;;;;;;;;8359438;28;20076;-87
2023/10/20 04:05:56;;;;;;;35.85;20.10;;;;;;;;;;8367661;28;20073;-94
2023/10/20 04:10:01;;;;;;;43.72;22.40;;;;;;;;;;8359823;28;20061;-95
2023/10/20 04:14:06;;;;;;;37.38;21.27;;;;;;;;;;8370367;28;20076;-92
2023/10/20 04:18:09;;;;;;;46.72;23.58;;;;;;;;;;8372342;28;20068;-88
2023/10/20 04:22:13;;;;;;;40.90;23.10;;;;;;;;;;8363565;28;20052;-87
2023/10/20 04:26:20;;;;;;;39.88;20.40;;;;;;;;;;8389694;28;20049;-95
2023/10/20 04:43:41;;;;;;;35.95;19.52;;;;;;;;;;8379471;28;20053;-88
2023/10/20 04:48:14;;;;;;;37.13;20.27;;;;;;;;;;8360456;28;20132;-87
2023/10/20 04:56:53;;;;;;;37.15;20.33;;;;;;;;;;8358922;28;20419;-95
2023/10/20 05:01:14;;;;;;;39.08;20.17;;;;;;;;;;8358011;28;20184;-96
2023/10/20 05:05:26;;;;;;;39.42;18.73;;;;;;;;;;8372028;28;20048;-94
2023/10/20 05:09:32;;;;;;;;;;;;;;;;;;8359175;28;20049;-89
2023/10/20 05:13:35;;;;;;;32.15;17.42;;;;;;;;;;8355795;28;19971;-88
2023/10/20 05:17:39;;;;;;;37.63;18.00;;;;;;;;;;8363975;28;20053;-95
2023/10/20 05:21:43;;;;;;;37.00;19.13;;;;;;;;;;8365200;28;20053;-96
2023/10/20 05:25:48;;;;;;;37.55;19.75;;;;;;;;;;8349897;28;20056;-94
2023/10/20 05:29:51;;;;;;;45.15;25.38;;;;;;;;;;8357198;28;20053;-88
2023/10/20 05:33:57;;;;;;;40.45;22.73;;;;;;;;;;8357345;28;20057;-94
2023/10/20 05:37:59;;;;;;;36.63;19.33;;;;;;;;;;8374559;28;20110;-95
2023/10/20 05:42:04;;;;;;;34.92;19.45;;;;;;;;;;8369547;28;20558;-88
2023/10/20 05:46:13;;;;;;;35.78;21.08;;;;;;;;;;8355868;28;20116;-88
2023/10/20 05:50:17;;;;;;;50.92;26.50;;;;;;;;;;8344089;28;20065;-94
2023/10/20 05:54:20;;;;;;;35.90;20.48;;;;;;;;;;8358449;28;20389;-92
2023/10/20 05:58:23;;;;;;;31.80;17.00;;;;;;;;;;8368079;28;20429;-87
2023/10/20 06:02:27;;;;;;;26.92;15.25;;;;;;;;;;8368038;28;20496;-95
2023/10/20 06:06:32;;;;;;;30.08;17.63;;;;;;;;;;8356428;28;20057;-93
2023/10/20 06:10:38;;;;;;;31.05;18.30;;;;;;;;;;8370379;28;20049;-90
2023/10/20 06:14:41;;;;;;;32.67;19.75;;;;;;;;;;8374184;28;20087;-89
2023/10/20 06:18:45;;;;;;;32.25;19.10;;;;;;;;;;8361561;28;20057;-91
2023/10/20 06:22:50;;;;;;;34.33;19.40;;;;;;;;;;8362926;28;20100;-91
2023/10/20 06:26:55;;;;;;;32.80;19.13;;;;;;;;;;8371501;28;20077;-92
2023/10/20 06:31:00;;;;;;;34.78;18.33;;;;;;;;;;8373705;28;20045;-87
2023/10/20 06:35:04;;;;;;;31.00;17.42;;;;;;;;;;8377672;28;20140;-88
2023/10/20 06:39:13;;;;;;;29.65;16.65;;;;;;;;;;8360460;28;20081;-95
2023/10/20 06:43:21;;;;;;;26.10;16.35;;;;;;;;;;8374213;28;20116;-95
2023/10/20 06:47:26;;;;;;;27.50;17.98;;;;;;;;;;8362847;28;20041;-91
2023/10/20 06:51:31;;;;;;;21.73;13.55;;;;;;;;;;8361827;28;20103;-92
2023/10/20 06:55:35;;;;;;;23.83;14.00;;;;;;;;;;8357664;28;20053;-88
2023/10/20 06:59:39;;;;;;;22.55;13.52;;;;;;;;;;8369782;28;20051;-94
2023/10/20 07:03:51;;;;;;;21.05;13.45;;;;;;;;;;8352734;28;20053;-92
2023/10/20 07:08:03;;;;;;;22.63;14.00;;;;;;;;;;8355473;28;20117;-95
2023/10/20 07:12:23;;;;;;;22.02;14.23;;;;;;;;;;8368162;28;20052;-91
2023/10/20 07:16:27;;;;;;;35.63;21.38;;;;;;;;;;8467440;22;20056;-95
2023/10/20 07:20:32;;;;;;;45.20;24.27;;;;;;;;;;8474082;27;20054;-89
2023/10/20 07:24:35;;;;;;;41.20;22.55;;;;;;;;;;8469864;28;20131;-87
2023/10/20 07:28:44;;;;;;;46.40;15.80;;;;;;;;;;8436163;28;20486;-90
2023/10/20 07:32:49;;;;;;;26.23;16.50;;;;;;;;;;8442712;28;20052;-91
2023/10/20 07:36:52;;;;;;;24.15;13.65;;;;;;;;;;8461801;28;20185;-88
2023/10/20 07:41:07;;;;;;;25.80;13.65;;;;;;;;;;8465052;28;20104;-93
2023/10/20 07:45:12;;;;;;;21.02;13.63;;;;;;;;;;8463558;28;20056;-88
2023/10/20 07:49:15;;;;;;;19.15;12.15;;;;;;;;;;8465633;27;20625;-89
2023/10/20 07:53:18;;;;;;;21.45;13.95;;;;;;;;;;8460023;28;20048;-88
2023/10/20 07:57:23;;;;;;;23.45;14.25;;;;;;;;;;8449573;28;20109;-89
2023/10/20 08:01:39;;;;;;;20.52;11.27;;;;;;;;;;8475707;28;20107;-93
2023/10/20 08:05:44;;;;;;;19.92;11.20;;;;;;;;;;8484029;28;20063;-94
2023/10/20 08:09:52;;;;;;;17.50;11.73;;;;;;;;;;8516927;27;20047;-90
2023/10/20 08:13:57;;;;;;;19.40;12.32;;;;;;;;;;8493053;27;20047;-96
2023/10/20 08:18:14;;;;;;;19.83;11.95;;;;;;;;;;8474137;28;20047;-89
2023/10/20 08:22:17;;;;;;;22.63;14.52;;;;;;;;;;8445539;28;20177;-96
2023/10/20 08:26:23;;;;;;;17.80;12.00;;;;;;;;;;8483084;28;20051;-90
2023/10/20 08:30:45;;;;;;;18.20;12.23;;;;;;;;;;8462095;28;20070;-94
2023/10/20 08:34:49;;;;;;;28.60;15.20;;;;;;;;;;8484249;28;20072;-92
2023/10/20 08:38:55;;;;;;;18.65;12.85;;;;;;;;;;8486425;28;20415;-92
2023/10/20 08:43:04;;;;;;;22.40;13.45;;;;;;;;;;8471888;27;20052;-91
2023/10/20 08:47:13;;;;;;;19.25;11.95;;;;;;;;;;8460626;28;20048;-92
2023/10/20 08:55:49;;;;;;;22.35;13.70;;;;;;;;;;8476734;27;20057;-95
2023/10/20 08:59:57;;;;;;;23.92;13.98;;;;;;;;;;8434031;28;20148;-88
2023/10/20 09:04:04;;;;;;;20.50;12.85;;;;;;;;;;8465750;28;20546;-88
2023/10/20 09:08:12;;;;;;;20.90;14.13;;;;;;;;;;8446503;28;20083;-88
2023/10/20 09:12:20;;;;;;;19.75;12.88;;;;;;;;;;8468332;28;20052;-88
2023/10/20 09:16:23;;;;;;;21.45;13.15;;;;;;;;;;8479183;28;20047;-87
2023/10/20 09:20:26;;;;;;;20.38;13.73;;;;;;;;;;8485069;27;20390;-88
2023/10/20 09:24:31;;;;;;;19.98;11.40;;;;;;;;;;8455820;27;20039;-93
2023/10/20 09:28:34;;;;;;;16.45;11.30;;;;;;;;;;8482722;27;20096;-93
2023/10/20 09:32:37;;;;;;;20.20;12.60;;;;;;;;;;8443145;28;20060;-92
2023/10/20 09:36:44;;;;;;;21.05;11.98;;;;;;;;;;8463360;28;20131;-96
2023/10/20 09:40:55;;;;;;;19.80;11.50;;;;;;;;;;8470761;28;20468;-89
2023/10/20 09:45:06;;;;;;;26.02;14.68;;;;;;;;;;8453414;28;20073;-95
2023/10/20 09:49:20;;;;;;;27.00;14.25;;;;;;;;;;8474116;28;20055;-89
2023/10/20 09:53:42;;;;;;;28.00;15.40;;;;;;;;;;8476279;27;20486;-93
2023/10/20 09:58:02;;;;;;;26.48;15.15;;;;;;;;;;8463462;28;20052;-93
2023/10/20 10:02:18;;;;;;;22.30;12.93;;;;;;;;;;8490130;27;20068;-94
2023/10/20 10:06:26;;;;;;;30.90;18.23;;;;;;;;;;8480943;28;20071;-91
2023/10/20 10:10:33;;;;;;;19.63;11.02;;;;;;;;;;8490883;27;20058;-93
2023/10/20 10:15:12;;;;;;;25.65;13.48;;;;;;;;;;8473703;27;20135;-90
2023/10/20 10:23:44;;;;;;;28.65;14.93;;;;;;;;;;8490729;27;20054;-93
2023/10/20 10:27:52;;;;;;;23.63;13.80;;;;;;;;;;8490618;27;20103;-93
2023/10/20 10:32:13;;;;;;;32.55;17.45;;;;;;;;;;8478336;27;20047;-90
2023/10/20 10:40:46;;;;;;;26.00;14.10;;;;;;;;;;8469205;27;20056;-93
2023/10/20 10:44:49;;;;;;;26.73;14.35;;;;;;;;;;8461035;27;20050;-92
2023/10/20 10:49:06;;;;;;;24.38;12.90;;;;;;;;;;8472059;28;20083;-94
2023/10/20 10:53:31;;;;;;;29.15;15.93;;;;;;;;;;8483748;28;20063;-94
2023/10/20 10:57:35;;;;;;;25.05;14.35;;;;;;;;;;8488702;22;20098;-92
2023/10/20 11:01:42;;;;;;;27.55;16.42;;;;;;;;;;8475473;28;20051;-95
2023/10/20 11:05:49;;;;;;;28.23;16.27;;;;;;;;;;8463974;28;20055;-90
2023/10/20 11:09:52;;;;;;;26.60;15.20;;;;;;;;;;8458444;28;20403;-93
2023/10/20 11:13:57;;;;;;;27.13;15.52;;;;;;;;;;8462272;28;20137;-93
2023/10/20 11:18:04;;;;;;;26.95;14.95;;;;;;;;;;8454071;28;20142;-94
2023/10/20 11:22:21;;;;;;;28.75;16.67;;;;;;;;;;8484693;28;20055;-92
2023/10/20 11:26:26;;;;;;;27.95;15.45;;;;;;;;;;8459448;28;20476;-92
2023/10/20 11:30:32;;;;;;;27.27;15.80;;;;;;;;;;8475835;28;20055;-93
2023/10/20 11:34:35;;;;;;;28.25;14.98;;;;;;;;;;8458952;28;20087;-94
2023/10/20 11:38:40;;;;;;;34.33;16.67;;;;;;;;;;8478248;28;20482;-91
2023/10/20 11:51:44;;;;;;;36.53;18.48;;;;;;;;;;8440453;28;20040;-94
2023/10/20 11:55:52;;;;;;;34.67;18.38;;;;;;;;;;8413656;28;20119;-94
2023/10/20 11:59:58;;;;;;;35.00;18.27;;;;;;;;;;8409967;28;20055;-90
2023/10/20 12:04:14;;;;;;;38.63;20.60;;;;;;;;;;8438695;28;20060;-92
2023/10/20 12:08:32;;;;;;;34.03;18.38;;;;;;;;;;8358817;28;20052;-92
2023/10/20 12:12:41;;;;;;;40.15;19.88;;;;;;;;;;8414653;28;20053;-93
2023/10/20 12:16:47;;;;;;;38.67;19.60;;;;;;;;;;8409517;28;20119;-94
2023/10/20 12:25:27;;;;;;;40.22;20.33;;;;;;;;;;8409386;28;20067;-93
2023/10/20 12:29:34;;;;;;;54.20;22.83;;;;;;;;;;8423744;28;20056;-90
2023/10/20 12:33:40;;;;;;;46.65;23.15;;;;;;;;;;8409645;28;20048;-91
2023/10/20 12:37:43;;;;;;;38.15;20.23;;;;;;;;;;8414368;28;20435;-91
2023/10/20 12:41:46;;;;;;;43.05;19.67;;;;;;;;;;8429164;28;20048;-90
2023/10/20 12:45:55;;;;;;;50.30;24.50;;;;;;;;;;8451664;28;20047;-90
2023/10/20 12:50:01;;;;;;;51.80;22.73;;;;;;;;;;8466902;28;20044;-95
2023/10/20 12:54:10;;;;;;;48.65;24.02;;;;;;;;;;8396815;28;20415;-93
2023/10/20 12:58:17;;;;;;;54.17;26.90;;;;;;;;;;8437993;28;20094;-88
2023/10/20 13:02:23;;;;;;;45.22;23.85;;;;;;;;;;8405499;28;20051;-92
2023/10/20 13:06:32;;;;;;;39.10;19.70;;;;;;;;;;8431639;28;20068;-94
2023/10/20 13:10:37;;;;;;;48.17;22.20;;;;;;;;;;8409708;28;20059;-93
2023/10/20 13:14:43;;;;;;;46.53;21.80;;;;;;;;;;8429116;28;20044;-88
2023/10/20 13:18:57;;;;;;;51.40;22.40;;;;;;;;;;8419982;28;20048;-89
2023/10/20 13:23:18;;;;;;;42.22;20.80;;;;;;;;;;8437789;28;20539;-88
2023/10/20 13:27:32;;;;;;;43.58;20.33;;;;;;;;;;8409749;28;20044;-87
2023/10/20 13:31:42;;;;;;;39.45;19.55;;;;;;;;;;8423563;28;20052;-91
2023/10/20 13:40:12;;;;;;;42.08;20.85;;;;;;;;;;8418844;28;20102;-93
2023/10/20 13:44:15;;;;;;;33.67;18.58;;;;;;;;;;8417804;28;20098;-89
2023/10/20 13:48:18;;;;;;;42.20;21.63;;;;;;;;;;8408030;28;20067;-93
2023/10/20 13:52:23;;;;;;;37.50;19.38;;;;;;;;;;8399190;28;20075;-90
2023/10/20 13:56:28;;;;;;;46.20;22.85;;;;;;;;;;8416032;28;20142;-90
2023/10/20 14:00:33;;;;;;;35.65;20.33;;;;;;;;;;8426677;28;20079;-93
2023/10/20 14:04:42;;;;;;;37.42;18.83;;;;;;;;;;8406800;28;20088;-92
2023/10/20 14:08:49;;;;;;;39.50;21.98;;;;;;;;;;8427649;28;20063;-96
2023/10/20 14:12:54;;;;;;;38.03;19.98;;;;;;;;;;8413911;28;20097;-93
2023/10/20 14:17:05;;;;;;;36.65;19.73;;;;;;;;;;8398596;28;20056;-94
2023/10/20 14:21:09;;;;;;;36.67;19.90;;;;;;;;;;8386122;28;20102;-95
2023/10/20 14:25:14;;;;;;;33.33;18.35;;;;;;;;;;8400563;28;20110;-93
2023/10/20 14:29:18;;;;;;;36.55;20.08;;;;;;;;;;8418088;28;20127;-93
2023/10/20 14:33:25;;;;;;;42.80;21.30;;;;;;;;;;8418682;28;20060;-95
2023/10/20 14:37:29;;;;;;;36.38;20.25;;;;;;;;;;8403039;28;20059;-90
2023/10/20 14:41:36;;;;;;;39.67;24.13;;;;;;;;;;8400183;28;20068;-93
2023/10/20 14:45:39;;;;;;;41.85;21.27;;;;;;;;;;8407388;28;20055;-93
2023/10/20 14:49:42;;;;;;;41.40;21.58;;;;;;;;;;8408477;28;20048;-95
2023/10/20 14:53:45;;;;;;;27.65;16.20;;;;;;;;;;8409687;28;20119;-91
2023/10/20 14:57:53;;;;;;;40.90;22.40;;;;;;;;;;8401998;28;20106;-89
2023/10/20 15:01:56;;;;;;;34.40;18.42;;;;;;;;;;8392479;28;20079;-92
2023/10/20 15:06:09;;;;;;;31.15;17.20;;;;;;;;;;8396870;28;20060;-96
2023/10/20 15:10:31;;;;;;;31.40;17.08;;;;;;;;;;8407120;28;20059;-94
2023/10/20 15:14:37;;;;;;;28.70;15.35;;;;;;;;;;8409323;28;20044;-92
2023/10/20 15:18:40;;;;;;;31.67;18.08;;;;;;;;;;8408870;28;20067;-91
2023/10/20 15:22:43;;;;;;;38.40;21.27;;;;;;;;;;8399478;28;20423;-92
2023/10/20 15:26:47;;;;;;;36.72;19.45;;;;;;;;;;8397066;28;20147;-93
2023/10/20 15:30:52;;;;;;;41.22;23.10;;;;;;;;;;8394641;28;20051;-93
2023/10/20 15:39:24;;;;;;;34.65;18.52;;;;;;;;;;8386184;28;20082;-95
2023/10/20 15:43:43;;;;;;;46.03;25.80;;;;;;;;;;8425936;28;20071;-95
2023/10/20 15:47:50;;;;;;;43.83;25.33;;;;;;;;;;8428147;28;20060;-93
2023/10/20 15:51:55;;;;;;;33.72;19.60;;;;;;;;;;8421047;28;20052;-89
2023/10/20 15:55:58;;;;;;;101.50;52.78;;;;;;;;;;8404585;28;20129;-94
2023/10/20 16:00:03;;;;;;;37.88;23.17;;;;;;;;;;8415038;28;20105;-96
2023/10/20 16:04:11;;;;;;;31.67;18.08;;;;;;;;;;8390754;28;20053;-93
2023/10/20 16:08:14;;;;;;;34.42;18.02;;;;;;;;;;8431395;28;20111;-92
2023/10/20 16:12:28;;;;;;;57.38;30.80;;;;;;;;;;8402742;28;20080;-96
2023/10/20 16:16:39;;;;;;;56.08;27.88;;;;;;;;;;8415229;28;20046;-95
2023/10/20 16:21:12;;;;;;;97.05;40.97;;;;;;;;;;8405046;28;20044;-92
2023/10/20 16:25:17;;;;;;;81.00;37.50;;;;;;;;;;8394363;28;20052;-91
2023/10/20 16:29:21;;;;;;;73.93;39.20;;;;;;;;;;8409736;28;20053;-96
2023/10/20 16:33:27;;;;;;;50.25;25.42;;;;;;;;;;8409320;28;20056;-93
2023/10/20 16:37:33;;;;;;;52.72;31.83;;;;;;;;;;8399018;28;20055;-93
2023/10/20 16:41:37;;;;;;;41.85;24.55;;;;;;;;;;8407937;28;20060;-94
2023/10/20 16:45:46;;;;;;;64.28;33.85;;;;;;;;;;8391036;28;20056;-92
2023/10/20 16:49:55;;;;;;;45.15;24.15;;;;;;;;;;8399192;28;20059;-94
2023/10/20 16:54:00;;;;;;;52.35;27.75;;;;;;;;;;8390041;28;20059;-93
2023/10/20 16:58:03;;;;;;;52.30;26.67;;;;;;;;;;8381057;28;20049;-89
2023/10/20 17:02:08;;;;;;;60.75;31.88;;;;;;;;;;8384467;28;20416;-91
2023/10/20 17:06:27;;;;;;;43.72;22.38;;;;;;;;;;8371857;28;20126;-91
2023/10/20 17:10:47;;;;;;;65.25;29.73;;;;;;;;;;8365493;28;20377;-93
2023/10/20 17:14:51;;;;;;;58.47;25.00;;;;;;;;;;8390795;28;20055;-89
2023/10/20 17:18:56;;;;;;;43.20;24.60;;;;;;;;;;8395582;28;20827;-91
2023/10/20 17:23:00;;;;;;;91.85;52.45;;;;;;;;;;8373723;28;20049;-90
2023/10/20 17:27:06;;;;;;;98.20;41.78;;;;;;;;;;8389019;28;20053;-92
2023/10/20 17:31:11;;;;;;;109.13;49.22;;;;;;;;;;8389450;28;20074;-93
2023/10/20 17:35:15;;;;;;;111.85;42.50;;;;;;;;;;8398516;28;20130;-93
2023/10/20 17:39:20;;;;;;;73.03;34.95;;;;;;;;;;8402531;28;20122;-92
2023/10/20 17:43:26;;;;;;;71.78;32.97;;;;;;;;;;8421100;28;20063;-95
2023/10/20 17:47:30;;;;;;;86.75;41.95;;;;;;;;;;8433612;28;20075;-93
2023/10/20 17:51:35;;;;;;;133.18;47.92;;;;;;;;;;8396512;28;20055;-92
2023/10/20 17:55:43;;;;;;;77.30;35.83;;;;;;;;;;8396234;28;20064;-92
2023/10/20 17:59:50;;;;;;;336.92;168.13;;;;;;;;;;8393654;28;20055;-93
2023/10/20 18:03:55;;;;;;;76.32;35.83;;;;;;;;;;8396528;28;20061;-91
2023/10/20 18:08:05;;;;;;;113.00;45.58;;;;;;;;;;8385145;28;20052;-95
2023/10/20 18:12:09;;;;;;;91.53;34.75;;;;;;;;;;8407121;28;20083;-91
2023/10/20 18:16:17;;;;;;;79.20;30.40;;;;;;;;;;8403383;28;20118;-92
2023/10/20 18:20:22;;;;;;;64.75;29.50;;;;;;;;;;8417007;28;20102;-91
2023/10/20 18:24:26;;;;;;;114.38;44.22;;;;;;;;;;8394378;28;20136;-90
2023/10/20 18:28:32;;;;;;;84.90;39.53;;;;;;;;;;8382056;28;20048;-90
2023/10/20 18:32:49;;;;;;;71.65;31.40;;;;;;;;;;8411705;28;20052;-95
2023/10/20 18:36:55;;;;;;;72.15;32.80;;;;;;;;;;8401534;28;20049;-90
2023/10/20 18:41:01;;;;;;;69.78;30.25;;;;;;;;;;8400279;28;20057;-89
2023/10/20 18:45:07;;;;;;;75.57;34.28;;;;;;;;;;8404371;28;20412;-95
2023/10/20 18:49:16;;;;;;;60.20;29.02;;;;;;;;;;8401945;28;20048;-94
2023/10/20 18:53:22;;;;;;;64.03;31.00;;;;;;;;;;8402101;28;20139;-90
2023/10/20 18:57:27;;;;;;;63.05;28.55;;;;;;;;;;8381157;28;20053;-90
2023/10/20 19:01:36;;;;;;;56.08;26.23;;;;;;;;;;8377643;28;20052;-91
2023/10/20 19:06:00;;;;;;;78.50;34.70;;;;;;;;;;8396154;28;20053;-90
2023/10/20 19:10:11;;;;;;;80.60;33.35;;;;;;;;;;8388185;28;20048;-95
2023/10/20 19:14:18;;;;;;;64.22;27.05;;;;;;;;;;8402933;28;20056;-90
2023/10/20 19:18:33;;;;;;;70.90;28.13;;;;;;;;;;8401823;28;20511;-90
2023/10/20 19:22:41;;;;;;;78.95;32.42;;;;;;;;;;8343175;28;20048;-89
2023/10/20 19:26:48;;;;;;;92.88;35.75;;;;;;;;;;8383201;28;20061;-89
2023/10/20 19:30:59;;;;;;;75.10;32.42;;;;;;;;;;8384106;28;20053;-89
2023/10/20 19:35:08;;;;;;;83.32;31.88;;;;;;;;;;8399290;28;20056;-89
2023/10/20 19:39:16;;;;;;;77.68;31.73;;;;;;;;;;8386255;28;20056;-88
2023/10/20 19:43:21;;;;;;;79.15;31.00;;;;;;;;;;8384005;28;20128;-90
2023/10/20 19:47:25;;;;;;;68.95;28.83;;;;;;;;;;8393970;28;20056;-91
2023/10/20 19:51:30;;;;;;;76.65;30.20;;;;;;;;;;8412958;28;20563;-90
2023/10/20 19:55:39;;;;;;;76.15;32.95;;;;;;;;;;8382116;28;20153;-89
2023/10/20 19:59:44;;;;;;;117.68;54.72;;;;;;;;;;8400199;28;20130;-89
2023/10/20 20:03:49;;;;;;;71.47;28.50;;;;;;;;;;8400701;28;20048;-93
2023/10/20 20:07:57;;;;;;;77.53;30.58;;;;;;;;;;8400473;28;20052;-90
2023/10/20 20:12:05;;;;;;;75.63;30.88;;;;;;;;;;8410807;28;20495;-93
2023/10/20 20:16:15;;;;;;;73.25;30.48;;;;;;;;;;8414525;28;20076;-90
2023/10/20 20:20:20;;;;;;;84.63;33.72;;;;;;;;;;8399527;28;20048;-91
2023/10/20 20:24:26;;;;;;;74.80;29.92;;;;;;;;;;8405448;28;20407;-89
2023/10/20 20:28:32;;;;;;;78.45;32.13;;;;;;;;;;8419838;28;20111;-90
2023/10/20 20:32:36;;;;;;;82.40;33.90;;;;;;;;;;8412188;28;20538;-93
2023/10/20 20:36:39;;;;;;;62.75;29.30;;;;;;;;;;8399092;28;20067;-94
2023/10/20 20:40:43;;;;;;;68.07;29.33;;;;;;;;;;8414742;28;20486;-93
2023/10/20 20:44:48;;;;;;;70.57;31.65;;;;;;;;;;8408174;28;20131;-94
2023/10/20 20:48:52;;;;;;;72.55;29.52;;;;;;;;;;8431274;28;20052;-95
2023/10/20 20:52:56;;;;;;;62.67;28.83;;;;;;;;;;8433290;28;20074;-88
2023/10/20 20:56:59;;;;;;;71.50;29.92;;;;;;;;;;8433976;28;20048;-93
2023/10/20 21:01:09;;;;;;;69.25;29.90;;;;;;;;;;8432323;28;20059;-91
2023/10/20 21:05:14;;;;;;;66.68;29.98;;;;;;;;;;8401787;28;20071;-94
2023/10/20 21:09:17;;;;;;;68.70;30.20;;;;;;;;;;8431959;28;20048;-88
2023/10/20 21:13:20;;;;;;;75.95;30.70;;;;;;;;;;8405585;28;20068;-92
2023/10/20 21:17:25;;;;;;;78.53;30.08;;;;;;;;;;8432109;28;20056;-93
2023/10/20 21:21:27;;;;;;;74.97;30.45;;;;;;;;;;8399628;28;20135;-94
2023/10/20 21:25:36;;;;;;;74.07;31.05;;;;;;;;;;8412304;28;20502;-95
2023/10/20 21:29:39;;;;;;;82.70;33.72;;;;;;;;;;8418136;28;20135;-96
2023/10/20 21:33:44;;;;;;;67.68;29.58;;;;;;;;;;8418858;28;20123;-95
2023/10/20 21:37:47;;;;;;;76.20;31.42;;;;;;;;;;8405993;28;20058;-93
2023/10/20 21:41:50;;;;;;;85.07;32.83;;;;;;;;;;8418361;28;20044;-92
2023/10/20 21:45:56;;;;;;;65.38;28.73;;;;;;;;;;8418331;28;20053;-93
2023/10/20 21:50:01;;;;;;;65.63;28.77;;;;;;;;;;8406131;28;20618;-88
2023/10/20 21:54:06;;;;;;;75.43;31.80;;;;;;;;;;8404303;28;20056;-93
2023/10/20 21:58:09;;;;;;;81.72;33.45;;;;;;;;;;8419444;28;20048;-94
2023/10/20 22:02:12;;;;;;;78.28;33.17;;;;;;;;;;8431393;28;20063;-95
2023/10/20 22:06:16;;;;;;;61.33;28.02;;;;;;;;;;8419708;28;20126;-89
2023/10/20 22:10:19;;;;;;;77.00;29.45;;;;;;;;;;8417690;28;20383;-94
2023/10/20 22:14:23;;;;;;;72.72;30.52;;;;;;;;;;8424649;28;20057;-96
2023/10/20 22:18:26;;;;;;;76.28;30.98;;;;;;;;;;8412013;28;20053;-95
2023/10/20 22:22:30;;;;;;;75.38;29.50;;;;;;;;;;8431788;28;20492;-96
2023/10/20 22:26:33;;;;;;;68.88;28.58;;;;;;;;;;8430480;28;20461;-89
2023/10/20 22:30:36;;;;;;;62.35;28.23;;;;;;;;;;8411546;28;20057;-91
2023/10/20 22:34:39;;;;;;;67.85;29.02;;;;;;;;;;8424877;28;20075;-94
2023/10/20 22:38:43;;;;;;;68.10;30.42;;;;;;;;;;8398232;28;20045;-95
2023/10/20 22:42:46;;;;;;;69.60;30.77;;;;;;;;;;8412882;28;20061;-92
2023/10/20 22:46:49;;;;;;;65.82;28.65;;;;;;;;;;8419528;28;20064;-95
2023/10/20 22:50:52;;;;;;;67.68;29.92;;;;;;;;;;8432039;28;20567;-95
2023/10/20 22:54:56;;;;;;;60.70;28.30;;;;;;;;;;8432029;28;20131;-88
2023/10/20 22:58:59;;;;;;;57.53;26.42;;;;;;;;;;8435616;28;20063;-90
2023/10/20 23:03:02;;;;;;;63.78;29.30;;;;;;;;;;8432051;28;20477;-94
2023/10/20 23:07:05;;;;;;;63.55;28.90;;;;;;;;;;8434470;28;20139;-93
2023/10/20 23:11:10;;;;;;;64.40;29.60;;;;;;;;;;8424955;28;20575;-92
2023/10/20 23:15:13;;;;;;;60.03;27.17;;;;;;;;;;8436947;28;20480;-95
2023/10/20 23:19:15;;;;;;;56.95;28.23;;;;;;;;;;8436759;28;20523;-93
2023/10/20 23:23:19;;;;;;;51.35;27.10;;;;;;;;;;8435412;28;20056;-91
2023/10/20 23:27:24;;;;;;;52.80;27.27;;;;;;;;;;8416885;28;20057;-95
2023/10/20 23:31:27;;;;;;;50.33;25.67;;;;;;;;;;8416293;28;20143;-92
2023/10/20 23:35:30;;;;;;;47.90;25.42;;;;;;;;;;8436357;28;20048;-92
2023/10/20 23:39:34;;;;;;;49.60;26.45;;;;;;;;;;8422112;28;20049;-95
2023/10/20 23:43:38;;;;;;;43.92;23.98;;;;;;;;;;8435851;28;20131;-94
2023/10/20 23:47:41;;;;;;;50.67;25.85;;;;;;;;;;8420671;28;20465;-94
2023/10/20 23:51:45;;;;;;;47.53;25.60;;;;;;;;;;8423755;28;20072;-94
2023/10/20 23:55:48;;;;;;;46.85;25.58;;;;;;;;;;8404014;28;20182;-92
2023/10/20 23:59:53;;;;;;;45.28;25.00;;;;;;;;;;8435305;28;20052;-95
